sensor_id;sensor_type;location;lat;lon;timestamp;temperature;humidity
22235;DHT22;11286;45.596;5.284;2023-05-10T00:01:46;14.00;99.90
22235;DHT22;11286;45.596;5.284;2023-05-10T00:04:11;13.90;99.90
22235;DHT22;11286;45.596;5.284;2023-05-10T00:06:37;13.90;99.90
22235;DHT22;11286;45.596;5.284;2023-05-10T00:09:03;13.90;99.90
22235;DHT22;11286;45.596;5.284;2023-05-10T00:11:29;13.80;99.90
22235;DHT22;11286;45.596;5.284;2023-05-10T00:13:54;13.80;99.90
22235;DHT22;11286;45.596;5.284;2023-05-10T00:16:20;13.70;99.90
22235;DHT22;11286;45.596;5.284;2023-05-10T00:18:46;13.40;99.90
22235;DHT22;11286;45.596;5.284;2023-05-10T00:21:12;13.40;99.90
22235;DHT22;11286;45.596;5.284;2023-05-10T00:23:37;13.40;99.90
22235;DHT22;11286;45.596;5.284;2023-05-10T00:26:03;13.40;99.90
22235;DHT22;11286;45.596;5.284;2023-05-10T00:28:29;13.50;99.90
22235;DHT22;11286;45.596;5.284;2023-05-10T00:30:55;13.40;99.90
22235;DHT22;11286;45.596;5.284;2023-05-10T00:33:21;13.40;99.90
22235;DHT22;11286;45.596;5.284;2023-05-10T00:35:47;13.40;99.90
22235;DHT22;11286;45.596;5.284;2023-05-10T00:38:12;13.40;99.90
22235;DHT22;11286;45.596;5.284;2023-05-10T00:40:38;13.50;99.90
22235;DHT22;11286;45.596;5.284;2023-05-10T00:43:04;13.50;99.90
22235;DHT22;11286;45.596;5.284;2023-05-10T00:45:31;13.50;99.90
22235;DHT22;11286;45.596;5.284;2023-05-10T00:47:59;13.60;99.90
22235;DHT22;11286;45.596;5.284;2023-05-10T00:50:25;13.50;99.90
22235;DHT22;11286;45.596;5.284;2023-05-10T00:52:51;13.60;99.90
22235;DHT22;11286;45.596;5.284;2023-05-10T00:55:19;13.60;99.90
22235;DHT22;11286;45.596;5.284;2023-05-10T00:57:45;13.70;99.90
22235;DHT22;11286;45.596;5.284;2023-05-10T01:00:12;13.70;99.90
22235;DHT22;11286;45.596;5.284;2023-05-10T01:02:38;13.70;99.90
22235;DHT22;11286;45.596;5.284;2023-05-10T01:05:04;13.50;99.90
22235;DHT22;11286;45.596;5.284;2023-05-10T01:07:30;13.60;99.90
22235;DHT22;11286;45.596;5.284;2023-05-10T01:09:56;13.60;99.90
22235;DHT22;11286;45.596;5.284;2023-05-10T01:12:22;13.70;99.90
22235;DHT22;11286;45.596;5.284;2023-05-10T01:14:48;13.70;99.90
22235;DHT22;11286;45.596;5.284;2023-05-10T01:17:14;13.50;99.90
22235;DHT22;11286;45.596;5.284;2023-05-10T01:19:41;13.40;99.90
22235;DHT22;11286;45.596;5.284;2023-05-10T01:33:27;13.90;99.90
22235;DHT22;11286;45.596;5.284;2023-05-10T01:36:19;13.90;99.90
22235;DHT22;11286;45.596;5.284;2023-05-10T01:38:57;13.80;99.90
22235;DHT22;11286;45.596;5.284;2023-05-10T01:41:50;13.90;99.90
22235;DHT22;11286;45.596;5.284;2023-05-10T01:46:55;13.70;99.90
22235;DHT22;11286;45.596;5.284;2023-05-10T01:49:26;13.50;99.90
22235;DHT22;11286;45.596;5.284;2023-05-10T01:52:03;13.60;99.90
22235;DHT22;11286;45.596;5.284;2023-05-10T01:54:30;13.70;99.90
22235;DHT22;11286;45.596;5.284;2023-05-10T01:57:00;13.70;99.90
22235;DHT22;11286;45.596;5.284;2023-05-10T01:59:31;13.50;99.90
22235;DHT22;11286;45.596;5.284;2023-05-10T02:02:02;13.50;99.90
22235;DHT22;11286;45.596;5.284;2023-05-10T02:04:30;13.60;99.90
22235;DHT22;11286;45.596;5.284;2023-05-10T02:06:57;13.50;99.90
22235;DHT22;11286;45.596;5.284;2023-05-10T02:09:23;13.60;99.90
22235;DHT22;11286;45.596;5.284;2023-05-10T02:11:50;13.70;99.90
22235;DHT22;11286;45.596;5.284;2023-05-10T02:14:17;13.60;99.90
22235;DHT22;11286;45.596;5.284;2023-05-10T02:16:44;13.60;99.90
22235;DHT22;11286;45.596;5.284;2023-05-10T02:19:12;13.70;99.90
22235;DHT22;11286;45.596;5.284;2023-05-10T02:21:39;13.80;99.90
22235;DHT22;11286;45.596;5.284;2023-05-10T02:24:06;13.70;99.90
22235;DHT22;11286;45.596;5.284;2023-05-10T02:26:35;13.60;99.90
22235;DHT22;11286;45.596;5.284;2023-05-10T02:29:03;13.70;99.90
22235;DHT22;11286;45.596;5.284;2023-05-10T02:31:31;13.80;99.90
22235;DHT22;11286;45.596;5.284;2023-05-10T02:33:58;13.70;99.90
22235;DHT22;11286;45.596;5.284;2023-05-10T02:36:26;13.80;99.90
22235;DHT22;11286;45.596;5.284;2023-05-10T02:38:53;13.70;99.90
22235;DHT22;11286;45.596;5.284;2023-05-10T02:41:22;13.60;99.90
22235;DHT22;11286;45.596;5.284;2023-05-10T02:43:51;13.70;99.90
22235;DHT22;11286;45.596;5.284;2023-05-10T02:46:18;13.70;99.90
22235;DHT22;11286;45.596;5.284;2023-05-10T02:48:44;13.60;99.90
22235;DHT22;11286;45.596;5.284;2023-05-10T02:51:12;13.60;99.90
22235;DHT22;11286;45.596;5.284;2023-05-10T02:53:41;13.60;99.90
22235;DHT22;11286;45.596;5.284;2023-05-10T02:56:14;13.60;99.90
22235;DHT22;11286;45.596;5.284;2023-05-10T02:58:40;13.70;99.90
22235;DHT22;11286;45.596;5.284;2023-05-10T03:01:06;13.80;99.90
22235;DHT22;11286;45.596;5.284;2023-05-10T03:03:33;13.80;99.90
22235;DHT22;11286;45.596;5.284;2023-05-10T03:05:58;13.80;99.90
22235;DHT22;11286;45.596;5.284;2023-05-10T03:08:24;13.70;99.90
22235;DHT22;11286;45.596;5.284;2023-05-10T03:13:40;14.00;99.90
22235;DHT22;11286;45.596;5.284;2023-05-10T03:16:14;13.90;99.90
22235;DHT22;11286;45.596;5.284;2023-05-10T03:19:06;13.90;99.90
22235;DHT22;11286;45.596;5.284;2023-05-10T03:21:38;13.90;99.90
22235;DHT22;11286;45.596;5.284;2023-05-10T03:24:08;13.80;99.90
22235;DHT22;11286;45.596;5.284;2023-05-10T03:26:34;13.90;99.90
22235;DHT22;11286;45.596;5.284;2023-05-10T03:29:02;13.90;99.90
22235;DHT22;11286;45.596;5.284;2023-05-10T03:31:28;14.00;99.90
22235;DHT22;11286;45.596;5.284;2023-05-10T03:33:54;13.90;99.90
22235;DHT22;11286;45.596;5.284;2023-05-10T03:36:19;14.00;99.90
22235;DHT22;11286;45.596;5.284;2023-05-10T03:38:45;13.90;99.90
22235;DHT22;11286;45.596;5.284;2023-05-10T03:41:11;13.90;99.90
22235;DHT22;11286;45.596;5.284;2023-05-10T03:43:36;13.90;99.90
22235;DHT22;11286;45.596;5.284;2023-05-10T03:46:05;13.90;99.90
22235;DHT22;11286;45.596;5.284;2023-05-10T03:48:32;14.00;99.90
22235;DHT22;11286;45.596;5.284;2023-05-10T03:50:57;13.90;99.90
22235;DHT22;11286;45.596;5.284;2023-05-10T03:53:24;14.00;99.90
22235;DHT22;11286;45.596;5.284;2023-05-10T03:55:49;13.90;99.90
22235;DHT22;11286;45.596;5.284;2023-05-10T03:58:15;13.90;99.90
22235;DHT22;11286;45.596;5.284;2023-05-10T04:00:41;14.00;99.90
22235;DHT22;11286;45.596;5.284;2023-05-10T04:03:09;13.90;99.90
22235;DHT22;11286;45.596;5.284;2023-05-10T04:05:35;13.90;99.90
22235;DHT22;11286;45.596;5.284;2023-05-10T04:08:02;13.90;99.90
22235;DHT22;11286;45.596;5.284;2023-05-10T04:10:27;13.80;99.90
22235;DHT22;11286;45.596;5.284;2023-05-10T04:12:53;13.90;99.90
22235;DHT22;11286;45.596;5.284;2023-05-10T04:15:19;13.70;99.90
22235;DHT22;11286;45.596;5.284;2023-05-10T04:17:44;13.70;99.90
22235;DHT22;11286;45.596;5.284;2023-05-10T04:20:11;13.60;99.90
22235;DHT22;11286;45.596;5.284;2023-05-10T04:22:37;13.70;99.90
22235;DHT22;11286;45.596;5.284;2023-05-10T04:25:03;13.70;99.90
22235;DHT22;11286;45.596;5.284;2023-05-10T04:27:29;13.60;99.90
22235;DHT22;11286;45.596;5.284;2023-05-10T04:29:55;13.60;99.90
22235;DHT22;11286;45.596;5.284;2023-05-10T04:32:20;13.60;99.90
22235;DHT22;11286;45.596;5.284;2023-05-10T04:34:46;13.60;99.90
22235;DHT22;11286;45.596;5.284;2023-05-10T04:37:12;13.50;99.90
22235;DHT22;11286;45.596;5.284;2023-05-10T04:39:37;13.60;99.90
22235;DHT22;11286;45.596;5.284;2023-05-10T04:42:03;13.50;99.90
22235;DHT22;11286;45.596;5.284;2023-05-10T04:44:31;13.60;99.90
22235;DHT22;11286;45.596;5.284;2023-05-10T04:46:57;13.60;99.90
22235;DHT22;11286;45.596;5.284;2023-05-10T04:49:22;13.50;99.90
22235;DHT22;11286;45.596;5.284;2023-05-10T04:51:48;13.50;99.90
22235;DHT22;11286;45.596;5.284;2023-05-10T04:54:14;13.50;99.90
22235;DHT22;11286;45.596;5.284;2023-05-10T04:56:40;13.40;99.90
22235;DHT22;11286;45.596;5.284;2023-05-10T04:59:06;13.50;99.90
22235;DHT22;11286;45.596;5.284;2023-05-10T05:01:32;13.40;99.90
22235;DHT22;11286;45.596;5.284;2023-05-10T05:03:58;13.40;99.90
22235;DHT22;11286;45.596;5.284;2023-05-10T05:06:23;13.40;99.90
22235;DHT22;11286;45.596;5.284;2023-05-10T05:08:50;13.20;99.90
22235;DHT22;11286;45.596;5.284;2023-05-10T05:11:16;13.20;99.90
22235;DHT22;11286;45.596;5.284;2023-05-10T05:13:42;13.20;99.90
22235;DHT22;11286;45.596;5.284;2023-05-10T05:16:08;13.20;99.90
22235;DHT22;11286;45.596;5.284;2023-05-10T05:18:34;13.20;99.90
22235;DHT22;11286;45.596;5.284;2023-05-10T05:21:00;13.30;99.90
22235;DHT22;11286;45.596;5.284;2023-05-10T05:23:26;13.20;99.90
22235;DHT22;11286;45.596;5.284;2023-05-10T05:25:52;13.20;99.90
22235;DHT22;11286;45.596;5.284;2023-05-10T05:28:19;13.10;99.90
22235;DHT22;11286;45.596;5.284;2023-05-10T05:30:46;13.30;99.90
22235;DHT22;11286;45.596;5.284;2023-05-10T05:33:13;13.30;99.90
22235;DHT22;11286;45.596;5.284;2023-05-10T05:35:39;13.20;99.90
22235;DHT22;11286;45.596;5.284;2023-05-10T05:38:04;13.10;99.90
22235;DHT22;11286;45.596;5.284;2023-05-10T05:40:30;13.10;99.90
22235;DHT22;11286;45.596;5.284;2023-05-10T05:42:56;13.60;99.90
22235;DHT22;11286;45.596;5.284;2023-05-10T05:45:22;13.80;99.90
22235;DHT22;11286;45.596;5.284;2023-05-10T05:47:47;13.80;99.90
22235;DHT22;11286;45.596;5.284;2023-05-10T05:50:13;13.90;99.90
22235;DHT22;11286;45.596;5.284;2023-05-10T05:52:39;13.80;99.90
22235;DHT22;11286;45.596;5.284;2023-05-10T05:55:04;13.90;99.90
22235;DHT22;11286;45.596;5.284;2023-05-10T05:57:30;13.80;99.90
22235;DHT22;11286;45.596;5.284;2023-05-10T05:59:56;13.80;99.90
22235;DHT22;11286;45.596;5.284;2023-05-10T06:02:22;13.70;99.90
22235;DHT22;11286;45.596;5.284;2023-05-10T06:04:47;13.70;99.90
22235;DHT22;11286;45.596;5.284;2023-05-10T06:07:13;13.70;99.90
22235;DHT22;11286;45.596;5.284;2023-05-10T06:09:39;13.80;99.90
22235;DHT22;11286;45.596;5.284;2023-05-10T06:12:04;13.70;99.90
22235;DHT22;11286;45.596;5.284;2023-05-10T06:14:30;13.80;99.90
22235;DHT22;11286;45.596;5.284;2023-05-10T06:16:56;13.80;99.90
22235;DHT22;11286;45.596;5.284;2023-05-10T06:19:21;13.80;99.90
22235;DHT22;11286;45.596;5.284;2023-05-10T06:21:47;13.90;99.90
22235;DHT22;11286;45.596;5.284;2023-05-10T06:24:13;13.90;99.90
22235;DHT22;11286;45.596;5.284;2023-05-10T06:26:38;14.00;99.90
22235;DHT22;11286;45.596;5.284;2023-05-10T06:29:04;13.90;99.90
22235;DHT22;11286;45.596;5.284;2023-05-10T06:31:29;13.90;99.90
22235;DHT22;11286;45.596;5.284;2023-05-10T06:33:55;13.90;99.90
22235;DHT22;11286;45.596;5.284;2023-05-10T06:36:21;14.10;99.90
22235;DHT22;11286;45.596;5.284;2023-05-10T06:38:47;14.10;99.90
22235;DHT22;11286;45.596;5.284;2023-05-10T06:41:12;14.20;99.90
22235;DHT22;11286;45.596;5.284;2023-05-10T06:43:38;14.40;99.90
22235;DHT22;11286;45.596;5.284;2023-05-10T06:46:06;14.30;99.90
22235;DHT22;11286;45.596;5.284;2023-05-10T06:48:32;14.20;99.90
22235;DHT22;11286;45.596;5.284;2023-05-10T06:50:58;14.40;99.90
22235;DHT22;11286;45.596;5.284;2023-05-10T06:53:23;14.40;99.90
22235;DHT22;11286;45.596;5.284;2023-05-10T06:55:49;14.60;99.90
22235;DHT22;11286;45.596;5.284;2023-05-10T06:58:15;14.50;99.90
22235;DHT22;11286;45.596;5.284;2023-05-10T07:00:41;14.70;99.90
22235;DHT22;11286;45.596;5.284;2023-05-10T07:03:09;14.70;99.90
22235;DHT22;11286;45.596;5.284;2023-05-10T07:05:36;14.60;99.90
22235;DHT22;11286;45.596;5.284;2023-05-10T07:08:01;14.90;99.90
22235;DHT22;11286;45.596;5.284;2023-05-10T07:10:27;15.00;99.90
22235;DHT22;11286;45.596;5.284;2023-05-10T07:12:53;14.70;99.90
22235;DHT22;11286;45.596;5.284;2023-05-10T07:15:18;14.60;99.90
22235;DHT22;11286;45.596;5.284;2023-05-10T07:17:44;14.70;99.90
22235;DHT22;11286;45.596;5.284;2023-05-10T07:20:11;14.90;99.90
22235;DHT22;11286;45.596;5.284;2023-05-10T07:22:37;14.90;99.90
22235;DHT22;11286;45.596;5.284;2023-05-10T07:25:04;15.00;99.90
22235;DHT22;11286;45.596;5.284;2023-05-10T07:27:30;15.20;99.90
22235;DHT22;11286;45.596;5.284;2023-05-10T07:29:55;15.10;99.90
22235;DHT22;11286;45.596;5.284;2023-05-10T07:32:22;15.20;99.90
22235;DHT22;11286;45.596;5.284;2023-05-10T07:34:47;15.10;99.90
22235;DHT22;11286;45.596;5.284;2023-05-10T07:37:13;14.90;99.90
22235;DHT22;11286;45.596;5.284;2023-05-10T07:39:38;14.90;99.90
22235;DHT22;11286;45.596;5.284;2023-05-10T07:42:04;14.70;99.90
22235;DHT22;11286;45.596;5.284;2023-05-10T07:44:30;14.60;99.90
22235;DHT22;11286;45.596;5.284;2023-05-10T07:46:56;14.50;99.90
22235;DHT22;11286;45.596;5.284;2023-05-10T07:49:22;14.60;99.90
22235;DHT22;11286;45.596;5.284;2023-05-10T07:51:49;14.80;99.90
22235;DHT22;11286;45.596;5.284;2023-05-10T07:54:15;14.90;99.90
22235;DHT22;11286;45.596;5.284;2023-05-10T07:56:41;15.20;99.90
22235;DHT22;11286;45.596;5.284;2023-05-10T07:59:15;15.30;99.90
22235;DHT22;11286;45.596;5.284;2023-05-10T08:01:41;15.60;99.90
22235;DHT22;11286;45.596;5.284;2023-05-10T08:04:07;15.80;99.90
22235;DHT22;11286;45.596;5.284;2023-05-10T08:06:33;15.50;99.90
22235;DHT22;11286;45.596;5.284;2023-05-10T08:08:58;15.50;99.90
22235;DHT22;11286;45.596;5.284;2023-05-10T08:11:24;15.60;99.90
22235;DHT22;11286;45.596;5.284;2023-05-10T08:13:50;15.80;99.90
22235;DHT22;11286;45.596;5.284;2023-05-10T08:16:17;15.90;99.90
22235;DHT22;11286;45.596;5.284;2023-05-10T08:18:44;15.70;99.90
22235;DHT22;11286;45.596;5.284;2023-05-10T08:21:10;15.90;99.90
22235;DHT22;11286;45.596;5.284;2023-05-10T08:23:36;16.00;99.90
22235;DHT22;11286;45.596;5.284;2023-05-10T08:26:02;16.00;99.90
22235;DHT22;11286;45.596;5.284;2023-05-10T08:28:28;16.00;99.90
22235;DHT22;11286;45.596;5.284;2023-05-10T08:30:54;16.10;99.90
22235;DHT22;11286;45.596;5.284;2023-05-10T08:33:19;16.00;99.90
22235;DHT22;11286;45.596;5.284;2023-05-10T08:35:45;16.00;99.90
22235;DHT22;11286;45.596;5.284;2023-05-10T08:38:11;16.10;99.90
22235;DHT22;11286;45.596;5.284;2023-05-10T08:40:39;16.30;99.90
22235;DHT22;11286;45.596;5.284;2023-05-10T08:43:09;16.40;99.90
22235;DHT22;11286;45.596;5.284;2023-05-10T08:45:39;16.50;99.90
22235;DHT22;11286;45.596;5.284;2023-05-10T08:48:07;16.30;99.90
22235;DHT22;11286;45.596;5.284;2023-05-10T08:50:36;16.20;99.90
22235;DHT22;11286;45.596;5.284;2023-05-10T08:53:04;16.20;99.90
22235;DHT22;11286;45.596;5.284;2023-05-10T08:55:31;16.30;99.90
22235;DHT22;11286;45.596;5.284;2023-05-10T08:57:58;16.30;99.90
22235;DHT22;11286;45.596;5.284;2023-05-10T09:00:25;16.50;99.90
22235;DHT22;11286;45.596;5.284;2023-05-10T09:02:50;16.50;99.90
22235;DHT22;11286;45.596;5.284;2023-05-10T09:05:16;16.40;99.90
22235;DHT22;11286;45.596;5.284;2023-05-10T09:07:43;16.40;99.90
22235;DHT22;11286;45.596;5.284;2023-05-10T09:10:09;16.20;99.90
22235;DHT22;11286;45.596;5.284;2023-05-10T09:12:36;16.10;99.90
22235;DHT22;11286;45.596;5.284;2023-05-10T09:15:02;16.10;99.90
22235;DHT22;11286;45.596;5.284;2023-05-10T09:17:29;16.00;99.90
22235;DHT22;11286;45.596;5.284;2023-05-10T09:20:02;15.80;99.90
22235;DHT22;11286;45.596;5.284;2023-05-10T09:22:30;15.80;99.90
22235;DHT22;11286;45.596;5.284;2023-05-10T09:25:10;15.60;99.90
22235;DHT22;11286;45.596;5.284;2023-05-10T09:27:37;15.40;99.90
22235;DHT22;11286;45.596;5.284;2023-05-10T09:30:04;15.60;99.90
22235;DHT22;11286;45.596;5.284;2023-05-10T09:32:43;15.40;99.90
22235;DHT22;11286;45.596;5.284;2023-05-10T09:35:10;15.40;99.90
22235;DHT22;11286;45.596;5.284;2023-05-10T09:37:36;15.50;99.90
22235;DHT22;11286;45.596;5.284;2023-05-10T09:40:06;15.60;99.90
22235;DHT22;11286;45.596;5.284;2023-05-10T09:42:34;15.50;99.90
22235;DHT22;11286;45.596;5.284;2023-05-10T09:45:02;15.60;99.90
22235;DHT22;11286;45.596;5.284;2023-05-10T09:47:28;15.50;99.90
22235;DHT22;11286;45.596;5.284;2023-05-10T09:49:54;15.50;99.90
22235;DHT22;11286;45.596;5.284;2023-05-10T09:52:23;15.70;99.90
22235;DHT22;11286;45.596;5.284;2023-05-10T09:54:57;15.70;99.90
22235;DHT22;11286;45.596;5.284;2023-05-10T09:57:24;15.80;99.90
22235;DHT22;11286;45.596;5.284;2023-05-10T09:59:51;15.80;99.90
22235;DHT22;11286;45.596;5.284;2023-05-10T10:02:19;15.60;99.90
22235;DHT22;11286;45.596;5.284;2023-05-10T10:04:45;15.70;99.90
22235;DHT22;11286;45.596;5.284;2023-05-10T10:07:14;15.40;99.90
22235;DHT22;11286;45.596;5.284;2023-05-10T10:09:40;15.40;99.90
22235;DHT22;11286;45.596;5.284;2023-05-10T10:12:05;15.50;99.90
22235;DHT22;11286;45.596;5.284;2023-05-10T10:14:31;15.40;99.90
22235;DHT22;11286;45.596;5.284;2023-05-10T10:17:00;15.50;99.90
22235;DHT22;11286;45.596;5.284;2023-05-10T10:19:26;15.60;99.90
22235;DHT22;11286;45.596;5.284;2023-05-10T10:21:52;15.80;99.90
22235;DHT22;11286;45.596;5.284;2023-05-10T10:24:17;16.00;99.90
22235;DHT22;11286;45.596;5.284;2023-05-10T10:26:44;16.00;99.90
22235;DHT22;11286;45.596;5.284;2023-05-10T10:32:35;15.70;99.90
22235;DHT22;11286;45.596;5.284;2023-05-10T10:35:03;16.10;99.90
22235;DHT22;11286;45.596;5.284;2023-05-10T10:37:46;15.90;99.90
22235;DHT22;11286;45.596;5.284;2023-05-10T10:42:52;15.90;99.90
22235;DHT22;11286;45.596;5.284;2023-05-10T10:45:19;16.00;99.90
22235;DHT22;11286;45.596;5.284;2023-05-10T10:47:45;16.10;99.90
22235;DHT22;11286;45.596;5.284;2023-05-10T10:50:11;16.00;99.90
22235;DHT22;11286;45.596;5.284;2023-05-10T10:52:45;16.20;99.90
22235;DHT22;11286;45.596;5.284;2023-05-10T10:55:13;16.30;99.90
22235;DHT22;11286;45.596;5.284;2023-05-10T10:57:56;16.20;99.90
22235;DHT22;11286;45.596;5.284;2023-05-10T11:00:30;16.20;99.90
22235;DHT22;11286;45.596;5.284;2023-05-10T11:05:25;16.30;99.90
22235;DHT22;11286;45.596;5.284;2023-05-10T11:07:52;16.60;99.90
22235;DHT22;11286;45.596;5.284;2023-05-10T11:10:20;16.60;99.90
22235;DHT22;11286;45.596;5.284;2023-05-10T11:13:02;16.30;99.90
22235;DHT22;11286;45.596;5.284;2023-05-10T11:15:38;16.40;99.90
22235;DHT22;11286;45.596;5.284;2023-05-10T11:20:44;17.00;99.90
22235;DHT22;11286;45.596;5.284;2023-05-10T11:23:15;17.10;99.90
22235;DHT22;11286;45.596;5.284;2023-05-10T11:25:45;17.20;99.90
22235;DHT22;11286;45.596;5.284;2023-05-10T11:28:14;17.10;99.90
22235;DHT22;11286;45.596;5.284;2023-05-10T11:30:41;17.80;99.90
22235;DHT22;11286;45.596;5.284;2023-05-10T11:33:07;18.20;99.90
22235;DHT22;11286;45.596;5.284;2023-05-10T11:35:40;18.10;99.90
22235;DHT22;11286;45.596;5.284;2023-05-10T11:38:09;18.40;99.90
22235;DHT22;11286;45.596;5.284;2023-05-10T11:40:36;18.50;99.90
22235;DHT22;11286;45.596;5.284;2023-05-10T11:43:02;18.70;99.90
22235;DHT22;11286;45.596;5.284;2023-05-10T11:45:29;18.20;99.90
22235;DHT22;11286;45.596;5.284;2023-05-10T11:47:58;18.40;99.90
22235;DHT22;11286;45.596;5.284;2023-05-10T11:50:24;18.60;99.90
22235;DHT22;11286;45.596;5.284;2023-05-10T11:52:55;18.40;99.90
22235;DHT22;11286;45.596;5.284;2023-05-10T11:55:21;18.20;99.90
22235;DHT22;11286;45.596;5.284;2023-05-10T11:57:47;18.20;99.90
22235;DHT22;11286;45.596;5.284;2023-05-10T12:00:14;18.70;99.90
22235;DHT22;11286;45.596;5.284;2023-05-10T12:02:39;18.80;99.90
22235;DHT22;11286;45.596;5.284;2023-05-10T12:05:06;18.20;99.90
22235;DHT22;11286;45.596;5.284;2023-05-10T12:07:32;18.40;99.90
22235;DHT22;11286;45.596;5.284;2023-05-10T12:12:40;19.20;99.90
22235;DHT22;11286;45.596;5.284;2023-05-10T12:15:23;19.40;99.90
22235;DHT22;11286;45.596;5.284;2023-05-10T12:17:50;19.90;99.90
22235;DHT22;11286;45.596;5.284;2023-05-10T12:20:17;19.70;99.90
22235;DHT22;11286;45.596;5.284;2023-05-10T12:22:49;20.00;99.90
22235;DHT22;11286;45.596;5.284;2023-05-10T12:25:15;20.80;99.90
22235;DHT22;11286;45.596;5.284;2023-05-10T12:27:51;21.40;99.90
22235;DHT22;11286;45.596;5.284;2023-05-10T12:30:24;22.50;99.90
22235;DHT22;11286;45.596;5.284;2023-05-10T12:32:50;22.20;99.90
22235;DHT22;11286;45.596;5.284;2023-05-10T12:35:16;22.90;99.90
22235;DHT22;11286;45.596;5.284;2023-05-10T12:37:43;21.60;99.90
22235;DHT22;11286;45.596;5.284;2023-05-10T12:40:10;20.90;99.90
22235;DHT22;11286;45.596;5.284;2023-05-10T12:42:38;20.30;99.90
22235;DHT22;11286;45.596;5.284;2023-05-10T12:45:08;20.10;99.90
22235;DHT22;11286;45.596;5.284;2023-05-10T12:47:34;20.00;99.90
22235;DHT22;11286;45.596;5.284;2023-05-10T12:50:00;19.60;99.90
22235;DHT22;11286;45.596;5.284;2023-05-10T12:52:27;20.40;99.90
22235;DHT22;11286;45.596;5.284;2023-05-10T12:54:53;21.50;99.90
22235;DHT22;11286;45.596;5.284;2023-05-10T12:57:20;22.40;99.90
22235;DHT22;11286;45.596;5.284;2023-05-10T12:59:46;21.00;99.90
22235;DHT22;11286;45.596;5.284;2023-05-10T13:02:12;20.20;99.90
22235;DHT22;11286;45.596;5.284;2023-05-10T13:04:38;20.00;99.90
22235;DHT22;11286;45.596;5.284;2023-05-10T13:07:08;20.10;99.90
22235;DHT22;11286;45.596;5.284;2023-05-10T13:09:34;20.30;99.90
22235;DHT22;11286;45.596;5.284;2023-05-10T13:12:00;21.10;99.90
22235;DHT22;11286;45.596;5.284;2023-05-10T13:14:26;20.60;99.90
22235;DHT22;11286;45.596;5.284;2023-05-10T13:16:51;20.30;99.90
22235;DHT22;11286;45.596;5.284;2023-05-10T13:19:17;20.70;99.90
22235;DHT22;11286;45.596;5.284;2023-05-10T13:21:43;20.50;99.90
22235;DHT22;11286;45.596;5.284;2023-05-10T13:24:10;20.20;99.90
22235;DHT22;11286;45.596;5.284;2023-05-10T13:26:42;20.10;99.90
22235;DHT22;11286;45.596;5.284;2023-05-10T13:29:07;20.00;99.90
22235;DHT22;11286;45.596;5.284;2023-05-10T13:31:33;20.20;99.90
22235;DHT22;11286;45.596;5.284;2023-05-10T13:33:59;20.50;99.90
22235;DHT22;11286;45.596;5.284;2023-05-10T13:36:25;20.40;99.90
22235;DHT22;11286;45.596;5.284;2023-05-10T13:38:51;20.60;99.90
22235;DHT22;11286;45.596;5.284;2023-05-10T13:41:17;20.70;99.90
22235;DHT22;11286;45.596;5.284;2023-05-10T13:43:43;21.00;99.90
22235;DHT22;11286;45.596;5.284;2023-05-10T13:46:08;21.20;99.90
22235;DHT22;11286;45.596;5.284;2023-05-10T13:48:34;21.00;99.90
22235;DHT22;11286;45.596;5.284;2023-05-10T13:51:02;20.80;99.90
22235;DHT22;11286;45.596;5.284;2023-05-10T13:53:27;21.10;99.90
22235;DHT22;11286;45.596;5.284;2023-05-10T13:55:53;20.70;99.90
22235;DHT22;11286;45.596;5.284;2023-05-10T13:58:19;20.80;99.90
22235;DHT22;11286;45.596;5.284;2023-05-10T14:00:44;20.20;99.90
22235;DHT22;11286;45.596;5.284;2023-05-10T14:03:10;20.10;99.90
22235;DHT22;11286;45.596;5.284;2023-05-10T14:05:36;20.10;99.90
22235;DHT22;11286;45.596;5.284;2023-05-10T14:08:02;20.30;99.90
22235;DHT22;11286;45.596;5.284;2023-05-10T14:10:28;20.50;99.90
22235;DHT22;11286;45.596;5.284;2023-05-10T14:12:53;21.00;99.90
22235;DHT22;11286;45.596;5.284;2023-05-10T14:15:19;21.00;99.90
22235;DHT22;11286;45.596;5.284;2023-05-10T14:17:45;20.80;99.90
22235;DHT22;11286;45.596;5.284;2023-05-10T14:20:11;20.70;99.90
22235;DHT22;11286;45.596;5.284;2023-05-10T14:22:36;20.80;99.90
22235;DHT22;11286;45.596;5.284;2023-05-10T14:25:02;21.10;99.90
22235;DHT22;11286;45.596;5.284;2023-05-10T14:27:28;21.10;99.90
22235;DHT22;11286;45.596;5.284;2023-05-10T14:29:53;20.80;99.90
22235;DHT22;11286;45.596;5.284;2023-05-10T14:32:19;20.50;99.90
22235;DHT22;11286;45.596;5.284;2023-05-10T14:34:45;20.20;99.90
22235;DHT22;11286;45.596;5.284;2023-05-10T14:37:11;20.20;99.90
22235;DHT22;11286;45.596;5.284;2023-05-10T14:39:37;20.40;99.90
22235;DHT22;11286;45.596;5.284;2023-05-10T14:42:03;19.80;99.90
22235;DHT22;11286;45.596;5.284;2023-05-10T14:44:29;19.70;99.90
22235;DHT22;11286;45.596;5.284;2023-05-10T14:46:54;19.80;99.90
22235;DHT22;11286;45.596;5.284;2023-05-10T14:49:21;19.40;99.90
22235;DHT22;11286;45.596;5.284;2023-05-10T14:51:48;19.30;99.90
22235;DHT22;11286;45.596;5.284;2023-05-10T14:54:13;19.60;99.90
22235;DHT22;11286;45.596;5.284;2023-05-10T14:56:39;19.70;99.90
22235;DHT22;11286;45.596;5.284;2023-05-10T14:59:06;19.90;99.90
22235;DHT22;11286;45.596;5.284;2023-05-10T15:01:32;20.00;99.90
22235;DHT22;11286;45.596;5.284;2023-05-10T15:04:00;20.00;99.90
22235;DHT22;11286;45.596;5.284;2023-05-10T15:06:34;20.10;99.90
22235;DHT22;11286;45.596;5.284;2023-05-10T15:09:01;19.90;99.90
22235;DHT22;11286;45.596;5.284;2023-05-10T15:11:29;20.00;99.90
22235;DHT22;11286;45.596;5.284;2023-05-10T15:13:54;20.20;99.90
22235;DHT22;11286;45.596;5.284;2023-05-10T15:16:20;20.60;99.90
22235;DHT22;11286;45.596;5.284;2023-05-10T15:18:46;21.10;99.90
22235;DHT22;11286;45.596;5.284;2023-05-10T15:21:12;21.40;99.90
22235;DHT22;11286;45.596;5.284;2023-05-10T15:23:38;21.20;99.90
22235;DHT22;11286;45.596;5.284;2023-05-10T15:26:03;21.20;99.90
22235;DHT22;11286;45.596;5.284;2023-05-10T15:28:29;21.50;99.90
22235;DHT22;11286;45.596;5.284;2023-05-10T15:30:55;21.60;99.90
22235;DHT22;11286;45.596;5.284;2023-05-10T15:33:21;21.90;99.90
22235;DHT22;11286;45.596;5.284;2023-05-10T15:35:47;21.80;99.90
22235;DHT22;11286;45.596;5.284;2023-05-10T15:38:12;21.40;99.90
22235;DHT22;11286;45.596;5.284;2023-05-10T15:40:38;21.10;99.90
22235;DHT22;11286;45.596;5.284;2023-05-10T15:43:04;21.60;99.90
22235;DHT22;11286;45.596;5.284;2023-05-10T15:45:30;21.20;99.90
22235;DHT22;11286;45.596;5.284;2023-05-10T15:47:57;21.20;99.90
22235;DHT22;11286;45.596;5.284;2023-05-10T15:50:22;20.80;99.90
22235;DHT22;11286;45.596;5.284;2023-05-10T15:52:48;20.20;99.90
22235;DHT22;11286;45.596;5.284;2023-05-10T15:55:14;20.10;99.90
22235;DHT22;11286;45.596;5.284;2023-05-10T15:57:40;20.20;99.90
22235;DHT22;11286;45.596;5.284;2023-05-10T16:00:07;20.00;99.90